sensor_id;sensor_type;location;lat;lon;timestamp;noise_LAeq;noise_LA_min;noise_LA_max;noise_LA01;noise_LA95
61270;Laerm;47150;53.032;8.960;2023-04-25T00:00:39;28.33;27.15;29.40;;
61270;Laerm;47150;53.032;8.960;2023-04-25T00:03:05;28.30;27.15;29.49;;
61270;Laerm;47150;53.032;8.960;2023-04-25T00:05:31;28.29;27.10;29.43;;
61270;Laerm;47150;53.032;8.960;2023-04-25T00:07:57;28.28;27.00;29.47;;
61270;Laerm;47150;53.032;8.960;2023-04-25T00:10:23;28.27;26.95;29.35;;
61270;Laerm;47150;53.032;8.960;2023-04-25T00:12:48;28.26;27.04;29.69;;
61270;Laerm;47150;53.032;8.960;2023-04-25T00:15:14;28.25;26.95;29.31;;
61270;Laerm;47150;53.032;8.960;2023-04-25T00:17:40;28.23;27.06;29.31;;
61270;Laerm;47150;53.032;8.960;2023-04-25T00:20:06;28.22;27.03;29.39;;
61270;Laerm;47150;53.032;8.960;2023-04-25T00:22:34;28.20;27.06;29.29;;
61270;Laerm;47150;53.032;8.960;2023-04-25T00:24:59;28.20;27.08;29.30;;
61270;Laerm;47150;53.032;8.960;2023-04-25T00:27:26;28.18;27.09;29.35;;
61270;Laerm;47150;53.032;8.960;2023-04-25T00:29:52;28.17;26.87;29.47;;
61270;Laerm;47150;53.032;8.960;2023-04-25T00:32:17;28.16;26.95;29.29;;
61270;Laerm;47150;53.032;8.960;2023-04-25T00:34:42;28.15;27.04;29.36;;
61270;Laerm;47150;53.032;8.960;2023-04-25T00:37:08;28.14;26.96;29.25;;
61270;Laerm;47150;53.032;8.960;2023-04-25T00:39:33;28.13;27.01;29.35;;
61270;Laerm;47150;53.032;8.960;2023-04-25T00:41:59;28.12;26.49;29.23;;
61270;Laerm;47150;53.032;8.960;2023-04-25T00:44:26;28.11;26.83;29.36;;
61270;Laerm;47150;53.032;8.960;2023-04-25T00:46:54;28.10;26.72;29.35;;
61270;Laerm;47150;53.032;8.960;2023-04-25T00:49:20;28.09;26.94;29.32;;
61270;Laerm;47150;53.032;8.960;2023-04-25T00:51:45;28.08;26.75;29.21;;
61270;Laerm;47150;53.032;8.960;2023-04-25T00:54:12;28.08;26.40;29.45;;
61270;Laerm;47150;53.032;8.960;2023-04-25T00:56:38;28.04;26.79;29.33;;
61270;Laerm;47150;53.032;8.960;2023-04-25T00:59:03;28.03;26.43;29.28;;
61270;Laerm;47150;53.032;8.960;2023-04-25T01:01:29;28.01;26.84;29.21;;
61270;Laerm;47150;53.032;8.960;2023-04-25T01:03:58;27.99;26.74;29.23;;
61270;Laerm;47150;53.032;8.960;2023-04-25T01:06:23;27.98;26.65;29.18;;
61270;Laerm;47150;53.032;8.960;2023-04-25T01:08:49;27.95;26.66;29.07;;
61270;Laerm;47150;53.032;8.960;2023-04-25T01:11:14;27.93;26.84;29.13;;
61270;Laerm;47150;53.032;8.960;2023-04-25T01:13:40;27.91;26.69;29.04;;
61270;Laerm;47150;53.032;8.960;2023-04-25T01:16:05;27.90;26.76;28.98;;
61270;Laerm;47150;53.032;8.960;2023-04-25T01:18:31;27.88;26.58;29.12;;
61270;Laerm;47150;53.032;8.960;2023-04-25T01:21:07;27.86;26.47;28.95;;
61270;Laerm;47150;53.032;8.960;2023-04-25T01:23:35;27.87;26.74;28.92;;
61270;Laerm;47150;53.032;8.960;2023-04-25T01:26:01;27.84;26.57;28.99;;
61270;Laerm;47150;53.032;8.960;2023-04-25T01:28:27;27.84;26.72;29.14;;
61270;Laerm;47150;53.032;8.960;2023-04-25T01:30:53;28.59;26.66;30.60;;
61270;Laerm;47150;53.032;8.960;2023-04-25T01:33:19;30.30;28.86;31.55;;
61270;Laerm;47150;53.032;8.960;2023-04-25T01:35:46;29.88;28.56;31.09;;
61270;Laerm;47150;53.032;8.960;2023-04-25T01:38:12;28.65;27.20;30.02;;
61270;Laerm;47150;53.032;8.960;2023-04-25T01:40:39;28.14;26.85;29.11;;
61270;Laerm;47150;53.032;8.960;2023-04-25T01:43:05;28.05;26.84;29.33;;
61270;Laerm;47150;53.032;8.960;2023-04-25T01:45:30;28.03;26.77;29.14;;
61270;Laerm;47150;53.032;8.960;2023-04-25T01:47:56;28.08;26.62;29.23;;
61270;Laerm;47150;53.032;8.960;2023-04-25T01:50:24;28.36;27.16;29.72;;
61270;Laerm;47150;53.032;8.960;2023-04-25T01:52:50;29.21;27.80;30.75;;
61270;Laerm;47150;53.032;8.960;2023-04-25T01:55:15;30.20;28.74;31.47;;
61270;Laerm;47150;53.032;8.960;2023-04-25T01:57:41;30.81;29.59;31.98;;
61270;Laerm;47150;53.032;8.960;2023-04-25T02:00:07;31.31;29.95;32.60;;
61270;Laerm;47150;53.032;8.960;2023-04-25T02:02:34;32.12;30.49;33.41;;
61270;Laerm;47150;53.032;8.960;2023-04-25T02:04:59;32.89;31.59;34.25;;
61270;Laerm;47150;53.032;8.960;2023-04-25T02:07:26;33.38;32.17;34.63;;
61270;Laerm;47150;53.032;8.960;2023-04-25T02:09:51;33.65;32.33;34.71;;
61270;Laerm;47150;53.032;8.960;2023-04-25T02:12:17;33.78;32.43;34.91;;
61270;Laerm;47150;53.032;8.960;2023-04-25T02:14:42;33.99;32.86;35.15;;
61270;Laerm;47150;53.032;8.960;2023-04-25T02:17:07;34.20;33.01;35.13;;
61270;Laerm;47150;53.032;8.960;2023-04-25T02:19:33;34.53;32.93;35.63;;
61270;Laerm;47150;53.032;8.960;2023-04-25T02:21:58;34.85;33.62;35.96;;
61270;Laerm;47150;53.032;8.960;2023-04-25T02:24:23;35.65;34.13;37.11;;
61270;Laerm;47150;53.032;8.960;2023-04-25T02:26:49;36.88;35.19;38.34;;
61270;Laerm;47150;53.032;8.960;2023-04-25T02:29:15;37.94;36.58;39.37;;
61270;Laerm;47150;53.032;8.960;2023-04-25T02:31:40;38.52;37.27;39.80;;
61270;Laerm;47150;53.032;8.960;2023-04-25T02:34:06;38.83;37.62;39.95;;
61270;Laerm;47150;53.032;8.960;2023-04-25T02:36:31;38.93;37.62;40.14;;
61270;Laerm;47150;53.032;8.960;2023-04-25T02:38:59;39.00;37.64;40.26;;
61270;Laerm;47150;53.032;8.960;2023-04-25T02:41:25;39.01;37.74;40.21;;
61270;Laerm;47150;53.032;8.960;2023-04-25T02:43:50;39.00;37.66;40.25;;
61270;Laerm;47150;53.032;8.960;2023-04-25T02:46:16;39.03;37.84;40.23;;
61270;Laerm;47150;53.032;8.960;2023-04-25T02:48:41;39.02;37.63;40.19;;
61270;Laerm;47150;53.032;8.960;2023-04-25T02:51:06;39.02;37.68;40.37;;
61270;Laerm;47150;53.032;8.960;2023-04-25T02:53:32;39.12;37.91;40.15;;
61270;Laerm;47150;53.032;8.960;2023-04-25T02:55:57;39.14;37.84;40.58;;
61270;Laerm;47150;53.032;8.960;2023-04-25T02:58:24;39.15;37.68;40.48;;
61270;Laerm;47150;53.032;8.960;2023-04-25T03:00:49;39.16;37.94;40.37;;
61270;Laerm;47150;53.032;8.960;2023-04-25T03:03:15;39.16;37.86;40.32;;
61270;Laerm;47150;53.032;8.960;2023-04-25T03:05:45;39.15;37.53;40.32;;
61270;Laerm;47150;53.032;8.960;2023-04-25T03:08:11;39.17;37.67;40.27;;
61270;Laerm;47150;53.032;8.960;2023-04-25T03:10:38;39.17;37.43;40.35;;
61270;Laerm;47150;53.032;8.960;2023-04-25T03:13:03;39.19;37.46;40.27;;
61270;Laerm;47150;53.032;8.960;2023-04-25T03:15:29;39.18;37.76;40.32;;
61270;Laerm;47150;53.032;8.960;2023-04-25T03:17:54;39.19;37.83;40.31;;
61270;Laerm;47150;53.032;8.960;2023-04-25T03:20:20;39.20;37.77;40.32;;
61270;Laerm;47150;53.032;8.960;2023-04-25T03:22:45;39.21;37.95;40.51;;
61270;Laerm;47150;53.032;8.960;2023-04-25T03:25:10;39.22;37.95;40.56;;
61270;Laerm;47150;53.032;8.960;2023-04-25T03:27:36;39.22;38.06;40.46;;
61270;Laerm;47150;53.032;8.960;2023-04-25T03:30:01;39.22;37.74;40.33;;
61270;Laerm;47150;53.032;8.960;2023-04-25T03:32:27;39.22;37.97;40.46;;
61270;Laerm;47150;53.032;8.960;2023-04-25T03:34:53;39.20;37.62;40.51;;
61270;Laerm;47150;53.032;8.960;2023-04-25T03:37:18;39.19;37.76;40.43;;
61270;Laerm;47150;53.032;8.960;2023-04-25T03:39:43;39.18;37.72;40.43;;
61270;Laerm;47150;53.032;8.960;2023-04-25T03:42:09;39.16;37.87;40.43;;
61270;Laerm;47150;53.032;8.960;2023-04-25T03:44:34;39.17;37.86;40.41;;
61270;Laerm;47150;53.032;8.960;2023-04-25T03:47:00;39.19;37.79;40.66;;
61270;Laerm;47150;53.032;8.960;2023-04-25T03:49:25;39.19;37.48;40.47;;
61270;Laerm;47150;53.032;8.960;2023-04-25T03:51:51;39.18;37.89;40.61;;
61270;Laerm;47150;53.032;8.960;2023-04-25T03:54:16;39.20;37.78;40.56;;
61270;Laerm;47150;53.032;8.960;2023-04-25T03:56:41;39.20;37.76;40.50;;
61270;Laerm;47150;53.032;8.960;2023-04-25T03:59:07;39.21;37.66;40.45;;
61270;Laerm;47150;53.032;8.960;2023-04-25T04:01:33;39.20;37.76;40.54;;
61270;Laerm;47150;53.032;8.960;2023-04-25T04:03:58;39.20;37.69;40.49;;
61270;Laerm;47150;53.032;8.960;2023-04-25T04:06:23;39.21;37.95;40.63;;
61270;Laerm;47150;53.032;8.960;2023-04-25T04:08:49;39.21;37.93;40.45;;
61270;Laerm;47150;53.032;8.960;2023-04-25T04:11:14;39.21;37.79;40.41;;
61270;Laerm;47150;53.032;8.960;2023-04-25T04:13:39;39.20;37.94;40.46;;
61270;Laerm;47150;53.032;8.960;2023-04-25T04:16:05;39.19;37.72;40.52;;
61270;Laerm;47150;53.032;8.960;2023-04-25T04:18:30;39.18;37.65;40.45;;
61270;Laerm;47150;53.032;8.960;2023-04-25T04:20:56;39.18;37.86;40.42;;
61270;Laerm;47150;53.032;8.960;2023-04-25T04:23:23;39.18;37.77;40.32;;
61270;Laerm;47150;53.032;8.960;2023-04-25T04:25:49;39.19;37.70;40.43;;
61270;Laerm;47150;53.032;8.960;2023-04-25T04:28:14;39.20;37.85;40.45;;
61270;Laerm;47150;53.032;8.960;2023-04-25T04:30:41;39.20;37.93;40.29;;
61270;Laerm;47150;53.032;8.960;2023-04-25T04:33:08;39.20;37.59;40.40;;
61270;Laerm;47150;53.032;8.960;2023-04-25T04:35:34;39.19;37.93;40.36;;
61270;Laerm;47150;53.032;8.960;2023-04-25T04:37:59;39.18;37.91;40.46;;
61270;Laerm;47150;53.032;8.960;2023-04-25T04:40:24;39.20;37.85;40.38;;
61270;Laerm;47150;53.032;8.960;2023-04-25T04:42:50;39.20;37.76;40.45;;
61270;Laerm;47150;53.032;8.960;2023-04-25T04:45:16;39.23;37.90;40.49;;
61270;Laerm;47150;53.032;8.960;2023-04-25T04:47:42;39.23;37.60;40.62;;
61270;Laerm;47150;53.032;8.960;2023-04-25T04:50:09;39.23;37.93;40.39;;
61270;Laerm;47150;53.032;8.960;2023-04-25T04:52:35;39.23;37.88;40.39;;
61270;Laerm;47150;53.032;8.960;2023-04-25T04:55:03;39.24;37.88;40.36;;
61270;Laerm;47150;53.032;8.960;2023-04-25T04:57:29;39.24;37.90;40.50;;
61270;Laerm;47150;53.032;8.960;2023-04-25T04:59:55;39.25;37.82;40.46;;
61270;Laerm;47150;53.032;8.960;2023-04-25T05:02:20;39.24;37.82;40.51;;
61270;Laerm;47150;53.032;8.960;2023-04-25T05:04:46;39.24;38.05;40.61;;
61270;Laerm;47150;53.032;8.960;2023-04-25T05:07:12;39.23;37.98;40.29;;
61270;Laerm;47150;53.032;8.960;2023-04-25T05:09:38;39.21;37.75;40.68;;
61270;Laerm;47150;53.032;8.960;2023-04-25T05:12:03;39.21;37.97;40.42;;
61270;Laerm;47150;53.032;8.960;2023-04-25T05:14:29;39.17;37.75;40.64;;
61270;Laerm;47150;53.032;8.960;2023-04-25T05:16:54;39.17;37.91;40.32;;
61270;Laerm;47150;53.032;8.960;2023-04-25T05:19:19;39.13;37.75;40.64;;
61270;Laerm;47150;53.032;8.960;2023-04-25T05:21:45;39.11;37.70;40.35;;
61270;Laerm;47150;53.032;8.960;2023-04-25T05:24:10;39.09;37.68;40.47;;
61270;Laerm;47150;53.032;8.960;2023-04-25T05:26:35;39.05;37.69;40.20;;
61270;Laerm;47150;53.032;8.960;2023-04-25T05:29:01;39.04;37.74;40.33;;
61270;Laerm;47150;53.032;8.960;2023-04-25T05:31:26;38.97;37.48;40.27;;
61270;Laerm;47150;53.032;8.960;2023-04-25T05:33:52;38.94;37.62;40.21;;
61270;Laerm;47150;53.032;8.960;2023-04-25T05:36:18;38.94;37.58;40.03;;
61270;Laerm;47150;53.032;8.960;2023-04-25T05:38:44;38.94;37.60;40.19;;
61270;Laerm;47150;53.032;8.960;2023-04-25T05:41:10;39.01;37.61;40.32;;
61270;Laerm;47150;53.032;8.960;2023-04-25T05:43:35;39.01;37.71;40.35;;
61270;Laerm;47150;53.032;8.960;2023-04-25T05:46:00;39.00;37.73;40.19;;
61270;Laerm;47150;53.032;8.960;2023-04-25T05:48:26;38.99;37.61;40.34;;
61270;Laerm;47150;53.032;8.960;2023-04-25T05:50:51;38.93;37.62;40.35;;
61270;Laerm;47150;53.032;8.960;2023-04-25T05:53:18;39.01;37.74;40.50;;
61270;Laerm;47150;53.032;8.960;2023-04-25T05:55:43;39.06;37.45;40.24;;
61270;Laerm;47150;53.032;8.960;2023-04-25T05:58:08;39.04;37.73;40.45;;
61270;Laerm;47150;53.032;8.960;2023-04-25T06:00:34;39.00;37.61;40.38;;
61270;Laerm;47150;53.032;8.960;2023-04-25T06:02:59;39.00;37.61;40.20;;
61270;Laerm;47150;53.032;8.960;2023-04-25T06:05:25;38.97;37.37;40.50;;
61270;Laerm;47150;53.032;8.960;2023-04-25T06:07:50;38.97;37.63;40.22;;
61270;Laerm;47150;53.032;8.960;2023-04-25T06:10:16;39.02;37.28;40.31;;
61270;Laerm;47150;53.032;8.960;2023-04-25T06:12:41;38.97;37.71;40.30;;
61270;Laerm;47150;53.032;8.960;2023-04-25T06:15:07;38.90;37.44;40.05;;
61270;Laerm;47150;53.032;8.960;2023-04-25T06:17:33;38.83;37.44;40.32;;
61270;Laerm;47150;53.032;8.960;2023-04-25T06:19:58;38.71;37.41;39.99;;
61270;Laerm;47150;53.032;8.960;2023-04-25T06:22:24;38.67;36.88;40.80;;
61270;Laerm;47150;53.032;8.960;2023-04-25T06:24:49;38.61;37.07;39.88;;
61270;Laerm;47150;53.032;8.960;2023-04-25T06:27:14;38.53;37.16;39.75;;
61270;Laerm;47150;53.032;8.960;2023-04-25T06:29:40;38.47;37.10;39.74;;
61270;Laerm;47150;53.032;8.960;2023-04-25T06:32:05;38.42;37.12;39.63;;
61270;Laerm;47150;53.032;8.960;2023-04-25T06:34:30;38.35;36.90;39.75;;
61270;Laerm;47150;53.032;8.960;2023-04-25T06:36:56;38.27;36.90;39.60;;
61270;Laerm;47150;53.032;8.960;2023-04-25T06:39:21;38.35;37.01;39.66;;
61270;Laerm;47150;53.032;8.960;2023-04-25T06:41:48;38.29;36.86;39.65;;
61270;Laerm;47150;53.032;8.960;2023-04-25T06:44:14;38.16;36.73;39.34;;
61270;Laerm;47150;53.032;8.960;2023-04-25T06:46:40;38.17;36.56;39.34;;
61270;Laerm;47150;53.032;8.960;2023-04-25T06:49:05;38.18;36.90;39.64;;
61270;Laerm;47150;53.032;8.960;2023-04-25T06:51:31;38.14;36.68;41.11;;
61270;Laerm;47150;53.032;8.960;2023-04-25T06:53:56;38.09;36.61;45.46;;
61270;Laerm;47150;53.032;8.960;2023-04-25T06:56:22;38.00;36.50;40.95;;
61270;Laerm;47150;53.032;8.960;2023-04-25T06:58:48;38.12;36.32;49.28;;
61270;Laerm;47150;53.032;8.960;2023-04-25T07:01:13;37.79;36.38;40.89;;
61270;Laerm;47150;53.032;8.960;2023-04-25T07:03:39;37.92;36.33;50.08;;
61270;Laerm;47150;53.032;8.960;2023-04-25T07:06:04;37.63;36.19;44.82;;
61270;Laerm;47150;53.032;8.960;2023-04-25T07:08:30;37.57;36.16;40.15;;
61270;Laerm;47150;53.032;8.960;2023-04-25T07:10:55;37.57;35.80;49.20;;
61270;Laerm;47150;53.032;8.960;2023-04-25T07:13:20;37.47;35.98;50.36;;
61270;Laerm;47150;53.032;8.960;2023-04-25T07:15:46;37.36;35.85;46.29;;
61270;Laerm;47150;53.032;8.960;2023-04-25T07:18:13;37.15;35.11;41.08;;
61270;Laerm;47150;53.032;8.960;2023-04-25T07:20:38;37.17;35.47;38.82;;
61270;Laerm;47150;53.032;8.960;2023-04-25T07:23:04;37.16;35.66;39.57;;
61270;Laerm;47150;53.032;8.960;2023-04-25T07:25:29;37.16;35.60;38.46;;
61270;Laerm;47150;53.032;8.960;2023-04-25T07:27:55;37.24;35.37;47.65;;
61270;Laerm;47150;53.032;8.960;2023-04-25T07:30:21;37.08;35.54;47.79;;
61270;Laerm;47150;53.032;8.960;2023-04-25T07:32:46;37.57;35.33;59.30;;
61270;Laerm;47150;53.032;8.960;2023-04-25T07:35:12;36.95;35.38;43.78;;
61270;Laerm;47150;53.032;8.960;2023-04-25T07:37:37;36.84;35.40;39.56;;
61270;Laerm;47150;53.032;8.960;2023-04-25T07:40:03;36.89;35.51;38.15;;
61270;Laerm;47150;53.032;8.960;2023-04-25T07:42:29;36.96;35.54;44.89;;
61270;Laerm;47150;53.032;8.960;2023-04-25T07:44:55;36.91;35.46;38.27;;
61270;Laerm;47150;53.032;8.960;2023-04-25T07:47:20;36.74;35.06;39.64;;
61270;Laerm;47150;53.032;8.960;2023-04-25T07:49:45;36.71;35.30;42.18;;
61270;Laerm;47150;53.032;8.960;2023-04-25T07:52:11;36.71;34.96;40.91;;
61270;Laerm;47150;53.032;8.960;2023-04-25T07:54:36;36.88;35.18;49.16;;
61270;Laerm;47150;53.032;8.960;2023-04-25T07:57:02;36.68;35.38;43.93;;
61270;Laerm;47150;53.032;8.960;2023-04-25T07:59:27;36.90;35.13;51.72;;
61270;Laerm;47150;53.032;8.960;2023-04-25T08:01:53;36.64;34.95;47.33;;
61270;Laerm;47150;53.032;8.960;2023-04-25T08:04:18;36.55;35.07;39.58;;
61270;Laerm;47150;53.032;8.960;2023-04-25T08:06:43;36.66;35.31;40.62;;
61270;Laerm;47150;53.032;8.960;2023-04-25T08:09:09;36.74;35.32;46.04;;
61270;Laerm;47150;53.032;8.960;2023-04-25T08:11:36;36.70;34.90;48.97;;
61270;Laerm;47150;53.032;8.960;2023-04-25T08:14:02;36.48;34.88;40.75;;
61270;Laerm;47150;53.032;8.960;2023-04-25T08:16:27;36.35;34.84;37.86;;
61270;Laerm;47150;53.032;8.960;2023-04-25T08:18:53;36.34;34.68;44.24;;
61270;Laerm;47150;53.032;8.960;2023-04-25T08:21:18;36.30;34.74;48.75;;
61270;Laerm;47150;53.032;8.960;2023-04-25T08:23:43;36.24;34.53;44.89;;
61270;Laerm;47150;53.032;8.960;2023-04-25T08:26:09;36.07;34.58;44.34;;
61270;Laerm;47150;53.032;8.960;2023-04-25T08:28:34;36.25;34.37;48.49;;
61270;Laerm;47150;53.032;8.960;2023-04-25T08:31:00;36.11;34.71;39.42;;
61270;Laerm;47150;53.032;8.960;2023-04-25T08:33:25;36.12;34.57;49.04;;
61270;Laerm;47150;53.032;8.960;2023-04-25T08:35:50;36.89;34.83;49.74;;
61270;Laerm;47150;53.032;8.960;2023-04-25T08:38:17;38.39;36.09;50.41;;
61270;Laerm;47150;53.032;8.960;2023-04-25T08:40:43;37.91;36.26;39.80;;
61270;Laerm;47150;53.032;8.960;2023-04-25T08:43:12;37.01;35.67;38.32;;
61270;Laerm;47150;53.032;8.960;2023-04-25T08:45:42;36.50;35.14;37.72;;
61270;Laerm;47150;53.032;8.960;2023-04-25T08:48:11;36.05;34.84;37.13;;
61270;Laerm;47150;53.032;8.960;2023-04-25T08:50:51;35.66;34.32;36.89;;
61270;Laerm;47150;53.032;8.960;2023-04-25T08:53:18;35.34;34.20;36.45;;
61270;Laerm;47150;53.032;8.960;2023-04-25T08:55:46;35.10;33.99;36.35;;
61270;Laerm;47150;53.032;8.960;2023-04-25T08:58:13;34.94;33.65;36.01;;
61270;Laerm;47150;53.032;8.960;2023-04-25T09:00:39;34.96;33.61;35.99;;
61270;Laerm;47150;53.032;8.960;2023-04-25T09:03:04;35.04;33.84;36.36;;
61270;Laerm;47150;53.032;8.960;2023-04-25T09:05:30;36.18;34.31;38.47;;
61270;Laerm;47150;53.032;8.960;2023-04-25T09:07:57;38.54;36.33;40.46;;
61270;Laerm;47150;53.032;8.960;2023-04-25T09:10:23;38.52;36.78;40.21;;
61270;Laerm;47150;53.032;8.960;2023-04-25T09:13:24;37.74;36.36;41.36;;
61270;Laerm;47150;53.032;8.960;2023-04-25T09:15:52;37.46;35.90;38.91;;
61270;Laerm;47150;53.032;8.960;2023-04-25T09:18:28;37.13;35.71;40.07;;
61270;Laerm;47150;53.032;8.960;2023-04-25T09:21:14;37.04;35.59;44.09;;
61270;Laerm;47150;53.032;8.960;2023-04-25T09:23:43;36.91;35.49;43.66;;
61270;Laerm;47150;53.032;8.960;2023-04-25T09:26:09;36.84;35.26;44.58;;
61270;Laerm;47150;53.032;8.960;2023-04-25T09:28:35;36.50;34.98;37.83;;
61270;Laerm;47150;53.032;8.960;2023-04-25T09:31:01;36.77;34.54;52.27;;
61270;Laerm;47150;53.032;8.960;2023-04-25T09:33:32;36.15;34.59;50.09;;
61270;Laerm;47150;53.032;8.960;2023-04-25T09:36:05;35.80;34.37;42.83;;
61270;Laerm;47150;53.032;8.960;2023-04-25T09:38:34;35.73;34.27;37.91;;
61270;Laerm;47150;53.032;8.960;2023-04-25T09:41:05;35.85;34.23;45.93;;
61270;Laerm;47150;53.032;8.960;2023-04-25T09:43:30;35.79;34.25;37.28;;
61270;Laerm;47150;53.032;8.960;2023-04-25T09:45:56;36.18;34.09;54.47;;
61270;Laerm;47150;53.032;8.960;2023-04-25T09:48:26;36.29;33.93;54.82;;
61270;Laerm;47150;53.032;8.960;2023-04-25T09:51:08;36.86;34.22;55.01;;
61270;Laerm;47150;53.032;8.960;2023-04-25T09:53:39;37.17;34.20;54.87;;
61270;Laerm;47150;53.032;8.960;2023-04-25T09:56:06;35.95;34.49;39.23;;
61270;Laerm;47150;53.032;8.960;2023-04-25T09:58:33;36.31;34.74;44.26;;
61270;Laerm;47150;53.032;8.960;2023-04-25T10:01:25;36.43;34.48;37.74;;
61270;Laerm;47150;53.032;8.960;2023-04-25T10:03:52;36.53;35.13;38.05;;
61270;Laerm;47150;53.032;8.960;2023-04-25T10:06:22;36.56;34.90;37.98;;
61270;Laerm;47150;53.032;8.960;2023-04-25T10:08:51;36.52;35.15;37.92;;
61270;Laerm;47150;53.032;8.960;2023-04-25T10:11:18;36.45;34.84;38.00;;
61270;Laerm;47150;53.032;8.960;2023-04-25T10:13:45;36.29;34.98;37.67;;
61270;Laerm;47150;53.032;8.960;2023-04-25T10:16:11;36.37;34.95;41.01;;
61270;Laerm;47150;53.032;8.960;2023-04-25T10:18:36;36.25;34.83;37.93;;
61270;Laerm;47150;53.032;8.960;2023-04-25T10:21:04;36.53;34.38;52.12;;
61270;Laerm;47150;53.032;8.960;2023-04-25T10:23:31;35.41;33.79;40.98;;
61270;Laerm;47150;53.032;8.960;2023-04-25T10:25:57;35.34;33.83;36.90;;
61270;Laerm;47150;53.032;8.960;2023-04-25T10:28:23;35.16;33.51;41.62;;
61270;Laerm;47150;53.032;8.960;2023-04-25T10:31:02;35.27;33.51;47.64;;
61270;Laerm;47150;53.032;8.960;2023-04-25T10:33:38;34.87;33.26;45.14;;
61270;Laerm;47150;53.032;8.960;2023-04-25T10:36:13;34.35;32.35;40.58;;
61270;Laerm;47150;53.032;8.960;2023-04-25T10:38:39;34.27;32.53;48.17;;
61270;Laerm;47150;53.032;8.960;2023-04-25T10:41:07;34.31;31.99;52.88;;
61270;Laerm;47150;53.032;8.960;2023-04-25T10:43:42;35.04;31.90;56.98;;
61270;Laerm;47150;53.032;8.960;2023-04-25T10:46:28;33.73;31.97;48.24;;
61270;Laerm;47150;53.032;8.960;2023-04-25T10:48:57;35.17;32.12;56.06;;
61270;Laerm;47150;53.032;8.960;2023-04-25T10:51:24;35.02;31.97;56.52;;
61270;Laerm;47150;53.032;8.960;2023-04-25T10:54:00;36.06;32.04;55.92;;
61270;Laerm;47150;53.032;8.960;2023-04-25T10:56:29;34.59;32.01;55.09;;
61270;Laerm;47150;53.032;8.960;2023-04-25T11:04:04;36.06;32.38;55.92;;
61270;Laerm;47150;53.032;8.960;2023-04-25T11:09:16;37.29;32.84;61.07;;
61270;Laerm;47150;53.032;8.960;2023-04-25T11:11:42;34.82;32.42;50.77;;
61270;Laerm;47150;53.032;8.960;2023-04-25T11:14:07;34.71;32.30;56.70;;
61270;Laerm;47150;53.032;8.960;2023-04-25T11:16:32;34.33;32.37;52.22;;
61270;Laerm;47150;53.032;8.960;2023-04-25T11:18:58;34.48;32.24;49.45;;
61270;Laerm;47150;53.032;8.960;2023-04-25T11:21:27;34.15;31.99;48.98;;
61270;Laerm;47150;53.032;8.960;2023-04-25T11:23:53;33.63;31.74;49.55;;
61270;Laerm;47150;53.032;8.960;2023-04-25T11:26:19;33.49;32.14;35.53;;
61270;Laerm;47150;53.032;8.960;2023-04-25T11:28:45;35.92;31.89;60.37;;
61270;Laerm;47150;53.032;8.960;2023-04-25T11:31:12;33.57;32.04;37.07;;
61270;Laerm;47150;53.032;8.960;2023-04-25T11:33:37;33.43;31.91;34.96;;
61270;Laerm;47150;53.032;8.960;2023-04-25T11:36:03;34.34;31.80;53.11;;
61270;Laerm;47150;53.032;8.960;2023-04-25T11:38:28;34.29;31.38;54.76;;
61270;Laerm;47150;53.032;8.960;2023-04-25T11:40:54;33.55;31.10;51.99;;
61270;Laerm;47150;53.032;8.960;2023-04-25T11:43:21;33.15;31.55;49.62;;
61270;Laerm;47150;53.032;8.960;2023-04-25T11:45:48;33.54;31.59;35.49;;
61270;Laerm;47150;53.032;8.960;2023-04-25T11:48:14;37.77;32.86;40.71;;
61270;Laerm;47150;53.032;8.960;2023-04-25T11:50:40;38.43;36.86;40.89;;
61270;Laerm;47150;53.032;8.960;2023-04-25T11:53:05;37.45;36.07;38.70;;
61270;Laerm;47150;53.032;8.960;2023-04-25T11:55:31;36.78;35.27;38.01;;
61270;Laerm;47150;53.032;8.960;2023-04-25T11:57:59;36.28;34.94;37.44;;
61270;Laerm;47150;53.032;8.960;2023-04-25T12:00:25;35.89;34.38;37.24;;
61270;Laerm;47150;53.032;8.960;2023-04-25T12:02:53;35.61;34.19;36.77;;
61270;Laerm;47150;53.032;8.960;2023-04-25T12:05:19;35.37;34.14;36.36;;
61270;Laerm;47150;53.032;8.960;2023-04-25T12:07:46;35.19;34.03;36.51;;
61270;Laerm;47150;53.032;8.960;2023-04-25T12:10:14;35.01;33.73;36.21;;
61270;Laerm;47150;53.032;8.960;2023-04-25T12:12:46;34.74;33.67;35.90;;
61270;Laerm;47150;53.032;8.960;2023-04-25T12:15:34;34.53;33.27;35.73;;
61270;Laerm;47150;53.032;8.960;2023-04-25T12:18:01;34.26;33.01;35.37;;
61270;Laerm;47150;53.032;8.960;2023-04-25T12:20:27;34.09;32.98;35.30;;
61270;Laerm;47150;53.032;8.960;2023-04-25T12:22:53;33.98;32.73;35.15;;
61270;Laerm;47150;53.032;8.960;2023-04-25T12:25:40;33.85;32.55;35.00;;
61270;Laerm;47150;53.032;8.960;2023-04-25T12:28:20;33.68;32.49;34.88;;
61270;Laerm;47150;53.032;8.960;2023-04-25T12:31:05;33.75;32.56;34.99;;
61270;Laerm;47150;53.032;8.960;2023-04-25T12:33:32;33.73;32.41;34.71;;
61270;Laerm;47150;53.032;8.960;2023-04-25T12:35:59;36.46;33.17;39.93;;
61270;Laerm;47150;53.032;8.960;2023-04-25T12:38:34;38.14;36.09;45.56;;
61270;Laerm;47150;53.032;8.960;2023-04-25T12:41:00;36.51;34.55;45.06;;
61270;Laerm;47150;53.032;8.960;2023-04-25T12:43:26;35.34;33.53;39.88;;
61270;Laerm;47150;53.032;8.960;2023-04-25T12:45:52;35.79;33.60;52.27;;
61270;Laerm;47150;53.032;8.960;2023-04-25T12:48:18;35.04;33.65;42.33;;
61270;Laerm;47150;53.032;8.960;2023-04-25T12:50:45;35.24;33.80;36.62;;
61270;Laerm;47150;53.032;8.960;2023-04-25T12:53:12;35.12;33.43;37.74;;
61270;Laerm;47150;53.032;8.960;2023-04-25T12:55:38;35.28;33.63;40.40;;
61270;Laerm;47150;53.032;8.960;2023-04-25T12:58:03;35.25;33.35;36.82;;
61270;Laerm;47150;53.032;8.960;2023-04-25T13:00:30;34.64;32.91;40.91;;
61270;Laerm;47150;53.032;8.960;2023-04-25T13:02:56;34.46;33.05;43.54;;
61270;Laerm;47150;53.032;8.960;2023-04-25T13:05:22;35.59;32.16;57.80;;
61270;Laerm;47150;53.032;8.960;2023-04-25T13:07:47;34.59;32.34;51.59;;
61270;Laerm;47150;53.032;8.960;2023-04-25T13:10:13;33.96;32.08;48.50;;
61270;Laerm;47150;53.032;8.960;2023-04-25T13:12:38;36.17;31.87;56.73;;
61270;Laerm;47150;53.032;8.960;2023-04-25T13:15:04;33.65;31.62;49.93;;
61270;Laerm;47150;53.032;8.960;2023-04-25T13:17:30;37.46;31.47;60.49;;
61270;Laerm;47150;53.032;8.960;2023-04-25T13:19:55;35.43;31.46;55.88;;
61270;Laerm;47150;53.032;8.960;2023-04-25T13:22:21;34.20;31.40;54.25;;
61270;Laerm;47150;53.032;8.960;2023-04-25T13:24:46;34.71;31.78;55.04;;
61270;Laerm;47150;53.032;8.960;2023-04-25T13:27:12;34.10;32.47;39.82;;
61270;Laerm;47150;53.032;8.960;2023-04-25T13:29:38;35.60;33.38;42.12;;
61270;Laerm;47150;53.032;8.960;2023-04-25T13:32:05;36.47;35.10;37.91;;
61270;Laerm;47150;53.032;8.960;2023-04-25T13:34:31;36.49;34.70;37.75;;
61270;Laerm;47150;53.032;8.960;2023-04-25T13:36:56;36.43;34.80;38.71;;
61270;Laerm;47150;53.032;8.960;2023-04-25T13:39:22;35.65;34.14;37.64;;
61270;Laerm;47150;53.032;8.960;2023-04-25T13:41:47;34.78;32.93;41.40;;
61270;Laerm;47150;53.032;8.960;2023-04-25T13:44:12;34.46;32.75;36.00;;
61270;Laerm;47150;53.032;8.960;2023-04-25T13:46:38;34.13;32.63;38.96;;
61270;Laerm;47150;53.032;8.960;2023-04-25T13:49:04;34.15;32.02;52.27;;